Tie Siding, WY (82084)

5:45 PM MDT on August 03, 2015 (GMT -0600)
WYDOT | | Change Station
CLOSE
Current Station
Personal Weather Station
Location: Tie Siding, WY
Elevation: 8097 ft
Nearby Weather Stations

Elev 8097 ft 41.05 °N, 105.47 °W | Updated 46 days ago

Thunderstorm
Thunderstorm
68 °F
Feels Like 68 °F
N
10
Wind Variable Wind from South
Gusts 15 mph

Today
High -- | Low -- °F
--% Chance of Precip.
Yesterday
High -- | Low -- °F
Precip. -- in
5:59 AM 8:15 PM
Waning Gibbous, 83% visible
Pressure 29.83 in
Visibility 10.0 miles
Clouds Mostly Cloudy 10000 ft
Dew Point 45 °F
Humidity 43%
Rainfall in
Snow Depth Not available.
UV 3 out of 12
Pollen 7.30 out of 12
Air Quality Not available.
Flu Activity Not available.
METAR KLAR 032253Z AUTO 19010KT 10SM BKN100 24/04 A3017 RMK AO2 PK WND 23030/2201 WSHFT 2155 SLP099 T02440044

More Conditions Fewer Conditions

Pressure 29.83 in
Visibility 10.0 miles
Clouds Mostly Cloudy 10000 ft
Dew Point 45 °F
Humidity 43%
Rainfall in
Snow Depth Not available.
UV 3 out of 12
Pollen 7.30 out of 12
Air Quality Not available.
Flu Activity Not available.
METAR KLAR 032253Z AUTO 19010KT 10SM BKN100 24/04 A3017 RMK AO2 PK WND 23030/2201 WSHFT 2155 SLP099 T02440044

More Conditions Fewer Conditions

10-Day Weather Forecast

×

Almanac

Astronomy

Aug. 03, 2015 Rise Set
Actual Time
Civil Twilight
Nautical Twilight
Astronomical Twilight
Moon
Length of Visible Light
Length of Day
Tomorrow will be .
, % of the Moon is Illuminated

Today's Extremes

State Highs State Lows

Community

WunderPhotos

Upload Photos

1,843,791 photos uploaded!

WunderBlogs® & News

Nearby

Air Quality

  Air Quality AQ Index Pollutant
Not available.

Snow Depth

Station Depth Elevation

Earthquake Activity

City Distance Mag. Time & Date
Minimum magnitude displayed is 2.5.

Coastal Water Temperatures

Place Temperature

Stations

Nearby Weather Stations

Station Location Temp. Windchill Dew Point Humidity Wind Precip. Elev Updated Type